createdAt,value
2018-09-01T03:01:05.389Z,92.37
2018-09-01T03:02:06.143Z,92.22
2018-09-01T03:03:05.984Z,92.18
2018-09-01T03:04:06.534Z,92.56
2018-09-01T03:05:08.011Z,92.80
2018-09-01T03:06:04.262Z,92.37
2018-09-01T03:07:04.226Z,92.37
2018-09-01T03:08:04.331Z,92.32
2018-09-01T03:09:04.489Z,92.51
2018-09-01T03:10:04.641Z,92.13
2018-09-01T03:11:04.777Z,92.13
2018-09-01T03:12:04.929Z,92.18
2018-09-01T03:13:05.137Z,92.70
2018-09-01T03:14:05.204Z,93.27
2018-09-01T03:15:05.464Z,93.18
2018-09-01T03:16:05.739Z,92.94
2018-09-01T03:17:05.757Z,92.94
2018-09-01T03:18:05.952Z,91.61
2018-09-01T03:19:06.105Z,91.33
2018-09-01T03:20:06.374Z,90.75
2018-09-01T03:21:06.517Z,90.66
2018-09-01T03:22:06.594Z,90.56
2018-09-01T03:23:06.927Z,91.23
2018-09-01T03:24:06.995Z,91.33
2018-09-01T03:25:07.125Z,91.80
2018-09-01T03:26:07.426Z,91.80
2018-09-01T03:27:07.455Z,92.56
2018-09-01T03:28:07.764Z,92.66
2018-09-01T03:29:07.756Z,92.94
2018-09-01T03:30:07.890Z,93.23
2018-09-01T03:31:08.022Z,93.04
2018-09-01T03:32:08.282Z,93.41
2018-09-01T03:33:08.359Z,92.94
2018-09-01T03:34:08.596Z,92.66
2018-09-01T03:35:08.776Z,92.27
2018-09-01T03:36:09.030Z,91.33
2018-09-01T03:37:09.248Z,91.23
2018-09-01T03:38:09.276Z,90.85
2018-09-01T03:39:09.573Z,90.75
2018-09-01T03:40:09.997Z,90.75
2018-09-01T03:41:10.025Z,91.80
2018-09-01T03:42:10.067Z,92.18
2018-09-01T03:43:10.343Z,93.23
2018-09-01T03:44:10.243Z,93.41
2018-09-01T03:45:10.577Z,93.51
2018-09-01T03:46:10.604Z,94.46
2018-09-01T03:47:10.843Z,94.56
2018-09-01T03:48:11.119Z,94.37
2018-09-01T03:49:11.199Z,93.99
2018-09-01T03:50:11.358Z,93.60
2018-09-01T03:51:11.522Z,93.32
2018-09-01T03:52:11.807Z,92.75
2018-09-01T03:53:11.874Z,93.32
2018-09-01T03:54:11.927Z,93.41
2018-09-01T03:55:12.106Z,93.41
2018-09-01T03:56:12.489Z,93.23
2018-09-01T03:57:12.551Z,93.89
2018-09-01T03:58:12.847Z,93.04
2018-09-01T03:59:12.936Z,93.04
2018-09-01T04:00:13.110Z,93.23
2018-09-01T04:01:13.487Z,92.94
2018-09-01T04:02:13.498Z,93.32
2018-09-01T04:03:13.562Z,93.23
2018-09-01T04:04:13.718Z,93.04
2018-09-01T04:05:13.921Z,93.32
2018-09-01T04:06:14.116Z,93.04
2018-09-01T04:07:14.152Z,92.94
2018-09-01T04:08:14.546Z,93.41
2018-09-01T04:09:14.671Z,93.41
2018-09-01T04:10:14.750Z,93.23
2018-09-01T04:11:15.612Z,93.23
2018-09-01T04:12:15.434Z,91.99
2018-09-01T04:13:15.218Z,91.52
2018-09-01T04:14:15.509Z,91.42
2018-09-01T04:15:15.796Z,91.61
2018-09-01T04:16:15.964Z,91.61
2018-09-01T04:17:16.189Z,91.71
2018-09-01T04:18:16.410Z,91.89
2018-09-01T04:19:16.319Z,91.80
2018-09-01T04:20:16.566Z,91.71
2018-09-01T04:21:16.717Z,91.47
2018-09-01T04:22:17.163Z,91.80
2018-09-01T04:23:17.287Z,91.56
2018-09-01T04:24:17.350Z,92.75
2018-09-01T04:25:17.412Z,93.27
2018-09-01T04:26:17.452Z,93.13
2018-09-01T04:27:17.654Z,93.84
2018-09-01T04:28:17.935Z,93.13
2018-09-01T04:29:18.049Z,93.04
2018-09-01T04:30:18.158Z,93.13
2018-09-01T04:31:18.344Z,92.85
2018-09-01T04:32:18.471Z,92.94
2018-09-01T04:33:18.735Z,93.18
2018-09-01T04:34:18.786Z,92.32
2018-09-01T04:35:19.107Z,92.37
2018-09-01T04:36:19.323Z,92.18
2018-09-01T04:37:19.383Z,92.61
2018-09-01T04:38:19.540Z,92.23
2018-09-01T04:39:19.605Z,92.23
2018-09-01T04:40:19.936Z,91.56
2018-09-01T04:41:20.096Z,91.56
2018-09-01T04:42:20.098Z,91.85
2018-09-01T04:43:20.465Z,91.56
2018-09-01T04:44:20.566Z,91.75
2018-09-01T04:45:20.788Z,92.13
2018-09-01T04:46:20.916Z,92.23
2018-09-01T04:47:21.069Z,92.71
2018-09-01T04:48:21.280Z,92.23
2018-09-01T04:49:21.425Z,93.08
2018-09-01T04:50:21.731Z,92.99
2018-09-01T04:51:22.680Z,93.27
2018-09-01T04:52:21.771Z,92.61
2018-09-01T04:53:22.102Z,92.80
2018-09-01T04:56:06.154Z,92.61
2018-09-01T04:57:06.533Z,91.66
2018-09-01T04:58:06.991Z,91.75
2018-09-01T04:59:08.157Z,91.28
2018-09-01T05:00:07.624Z,91.66
2018-09-01T05:01:04.957Z,91.66
2018-09-01T05:02:04.996Z,92.51
2018-09-01T05:03:05.127Z,92.23
2018-09-01T05:04:05.193Z,92.13
2018-09-01T05:05:05.656Z,92.42
2018-09-01T05:06:05.552Z,92.61
2018-09-01T05:07:05.840Z,92.23
2018-09-01T05:08:06.337Z,92.32
2018-09-01T05:09:06.038Z,92.32
2018-09-01T05:10:06.261Z,92.71
2018-09-01T05:11:06.342Z,92.61
2018-09-01T05:12:06.814Z,92.61
2018-09-01T05:13:06.624Z,93.18
2018-09-01T05:14:06.723Z,93.08
2018-09-01T05:15:06.979Z,93.18
2018-09-01T05:16:41.637Z,93.37
2018-09-01T05:17:10.086Z,92.61
2018-09-01T05:18:30.657Z,92.61
2018-09-01T05:19:07.948Z,91.66
2018-09-01T05:20:07.994Z,91.75
2018-09-01T05:21:08.060Z,91.56
2018-09-01T05:22:08.671Z,92.32
2018-09-01T05:27:41.194Z,91.56
2018-09-01T05:29:41.672Z,92.23
2018-09-01T05:30:41.979Z,92.42
2018-09-01T05:31:43.955Z,92.13
2018-09-01T05:33:42.684Z,92.42
2018-09-01T05:38:15.095Z,93.04
2018-09-01T05:39:18.712Z,93.32
2018-09-01T05:40:14.697Z,93.51
2018-09-01T05:41:15.563Z,93.79
2018-09-01T05:42:15.441Z,93.51
2018-09-01T05:43:15.486Z,93.41
2018-09-01T05:44:16.249Z,92.27
2018-09-01T05:45:14.677Z,91.71
2018-09-01T05:46:13.124Z,91.89
2018-09-01T05:47:13.240Z,91.23
2018-09-01T05:48:13.703Z,91.04
2018-09-01T05:51:58.216Z,91.23
2018-09-01T05:55:46.543Z,91.80
2018-09-01T06:04:11.856Z,91.18
2018-09-01T06:07:51.218Z,90.80
2018-09-01T06:12:27.317Z,90.42
2018-09-01T06:13:28.757Z,90.80
2018-09-01T06:14:28.006Z,90.70
2018-09-01T06:15:28.324Z,90.80
2018-09-01T06:16:27.730Z,91.18
2018-09-01T06:17:28.193Z,91.37
2018-09-01T06:18:26.032Z,91.37
2018-09-01T06:19:26.241Z,91.28
2018-09-01T06:20:26.394Z,91.18
2018-09-01T06:21:26.558Z,91.08
2018-09-01T06:22:26.751Z,90.89
2018-09-01T06:23:26.813Z,90.75
2018-09-01T06:24:26.967Z,90.84
2018-09-01T06:25:27.219Z,91.03
2018-09-01T06:26:27.270Z,90.56
2018-09-01T06:27:27.486Z,90.47
2018-09-01T06:28:27.813Z,90.75
2018-09-01T06:29:27.833Z,91.03
2018-09-01T06:30:28.084Z,90.75
2018-09-01T06:31:28.320Z,91.03
2018-09-01T06:32:28.375Z,90.84
2018-09-01T06:33:28.575Z,90.66
2018-09-01T06:34:28.895Z,90.75
2018-09-01T06:35:28.991Z,90.80
2018-09-01T06:36:29.062Z,91.08
2018-09-01T06:37:29.303Z,90.80
2018-09-01T06:38:29.394Z,90.99
2018-09-01T06:39:29.625Z,91.08
2018-09-01T06:40:29.729Z,90.51
2018-09-01T06:41:29.903Z,89.94
2018-09-01T06:42:30.120Z,90.13
2018-09-01T06:43:30.318Z,90.22
2018-09-01T06:44:30.389Z,89.79
2018-09-01T06:45:30.634Z,88.93
2018-09-01T06:46:30.844Z,88.84
2018-09-01T06:47:30.940Z,88.93
2018-09-01T06:48:31.100Z,88.37
2018-09-01T06:49:31.315Z,88.08
2018-09-01T06:50:31.508Z,88.56
2018-09-01T06:51:31.730Z,87.41
2018-09-01T06:52:31.790Z,87.70
2018-09-01T06:53:31.986Z,87.70
2018-09-01T06:54:32.131Z,87.70
2018-09-01T06:55:32.332Z,87.60
2018-09-01T06:56:32.514Z,87.70
2018-09-01T06:57:32.660Z,87.93
2018-09-01T06:58:32.843Z,87.07
2018-09-01T06:59:33.051Z,87.46
2018-09-01T07:00:33.155Z,87.17
2018-09-01T07:01:33.325Z,86.69
2018-09-01T07:02:33.481Z,86.98
2018-09-01T07:03:33.573Z,86.69
2018-09-01T07:04:33.824Z,85.93
2018-09-01T07:05:33.993Z,86.22
2018-09-01T07:06:34.122Z,86.03
2018-09-01T07:07:34.337Z,86.16
2018-09-01T07:08:34.500Z,85.69
2018-09-01T07:09:34.686Z,85.88
2018-09-01T07:10:34.914Z,85.78
2018-09-01T07:11:34.904Z,85.41
2018-09-01T07:12:35.166Z,85.50
2018-09-01T07:13:35.275Z,84.92
2018-09-01T07:14:35.423Z,85.31
2018-09-01T07:15:35.634Z,85.78
2018-09-01T07:16:35.824Z,85.25
2018-09-01T07:17:35.965Z,85.16
2018-09-01T07:18:36.206Z,84.69
2018-09-01T07:19:36.326Z,83.77
2018-09-01T07:20:36.444Z,83.77
2018-09-01T07:21:36.609Z,83.48
2018-09-01T07:22:36.799Z,82.91
2018-09-01T07:23:36.906Z,82.24
2018-09-01T07:24:37.095Z,82.19
2018-09-01T07:25:37.279Z,82.72
2018-09-01T07:26:37.389Z,82.09
2018-09-01T07:27:37.677Z,82.48
2018-09-01T07:28:37.787Z,82.38
2018-09-01T07:29:37.946Z,81.81
2018-09-01T07:30:38.176Z,80.61
2018-09-01T07:31:38.599Z,79.98
2018-09-01T07:32:38.465Z,79.16
2018-09-01T07:33:38.619Z,77.15
2018-09-01T07:34:38.772Z,75.95
2018-09-01T07:35:38.940Z,74.16
2018-09-01T07:36:39.211Z,73.63
2018-09-01T07:37:39.262Z,71.75
2018-09-01T07:38:39.492Z,69.48
2018-09-01T07:39:39.579Z,69.39
2018-09-01T07:40:39.765Z,69.39
2018-09-01T07:41:40.104Z,68.91
2018-09-01T07:42:40.128Z,69.74
2018-09-01T07:43:40.323Z,70.70
2018-09-01T07:44:40.437Z,71.62
2018-09-01T07:45:40.704Z,71.71
2018-09-01T07:46:40.880Z,73.11
2018-09-01T07:47:41.052Z,74.41
2018-09-01T07:48:41.178Z,74.90
2018-09-01T07:49:41.396Z,75.34
2018-09-01T07:50:41.604Z,75.91
2018-09-01T07:51:41.716Z,75.34
2018-09-01T07:52:41.924Z,75.37
2018-09-01T07:53:42.066Z,75.18
2018-09-01T07:54:42.220Z,75.37
2018-09-01T07:55:42.337Z,75.56
2018-09-01T07:56:42.497Z,75.52
2018-09-01T07:57:42.657Z,76.48
2018-09-01T07:58:42.880Z,75.95
2018-09-01T07:59:42.985Z,75.66
2018-09-01T08:00:43.201Z,75.37
2018-09-01T08:01:43.380Z,75.18
2018-09-01T08:02:43.452Z,75.09
2018-09-01T08:03:43.626Z,74.55
2018-09-01T08:04:43.769Z,73.54
2018-09-01T08:05:44.828Z,71.46
2018-09-01T08:06:44.237Z,70.73
2018-09-01T08:07:44.478Z,69.77
2018-09-01T08:08:44.516Z,68.66
2018-09-01T08:09:44.804Z,67.54
2018-09-01T08:10:44.991Z,66.23
2018-09-01T08:11:45.830Z,65.30
2018-09-01T08:12:45.284Z,63.86
2018-09-01T08:13:45.542Z,62.77
2018-09-01T08:14:45.625Z,62.00
2018-09-01T08:15:45.767Z,61.23
2018-09-01T08:16:46.031Z,61.23
2018-09-01T08:17:46.120Z,60.21
2018-09-01T08:18:46.253Z,59.66
2018-09-01T08:19:46.448Z,58.70
2018-09-01T08:20:46.609Z,58.31
2018-09-01T08:21:46.832Z,57.95
2018-09-01T08:22:46.933Z,57.40
2018-09-01T08:23:47.112Z,56.85
2018-09-01T08:24:47.196Z,56.27
2018-09-01T08:25:47.461Z,55.15
2018-09-01T08:26:47.634Z,55.31
2018-09-01T08:27:47.790Z,55.05
2018-09-01T08:28:47.939Z,54.21
2018-09-01T08:29:48.182Z,54.31
2018-09-01T08:30:48.257Z,53.37
2018-09-01T08:31:48.519Z,52.98
2018-09-01T08:32:48.653Z,52.53
2018-09-01T08:33:48.908Z,51.37
2018-09-01T08:34:49.044Z,50.89
2018-09-01T08:35:49.210Z,51.17
2018-09-01T08:36:49.423Z,50.98
2018-09-01T08:37:49.424Z,50.79
2018-09-01T08:38:49.736Z,51.01
2018-09-01T08:39:49.806Z,50.62
2018-09-01T08:40:50.005Z,49.95
2018-09-01T08:41:50.236Z,49.29
2018-09-01T08:42:50.324Z,49.58
2018-09-01T08:43:50.521Z,49.29
2018-09-01T08:44:50.675Z,48.90
2018-09-01T08:45:50.814Z,49.00
2018-09-01T08:46:50.927Z,48.83
2018-09-01T08:47:51.107Z,49.00
2018-09-01T08:48:51.301Z,49.10
2018-09-01T08:49:51.479Z,47.69
2018-09-01T08:50:51.714Z,49.05
2018-09-01T08:51:51.897Z,47.50
2018-09-01T08:52:52.178Z,47.69
2018-09-01T08:53:52.219Z,47.41
2018-09-01T08:54:52.344Z,46.34
2018-09-01T08:55:52.554Z,47.33
2018-09-01T08:56:52.669Z,47.09
2018-09-01T08:57:52.900Z,47.48
2018-09-01T08:58:53.004Z,47.41
2018-09-01T08:59:53.221Z,46.08
2018-09-01T09:00:53.416Z,45.71
2018-09-01T09:01:53.559Z,45.81
2018-09-01T09:02:53.698Z,46.31
2018-09-01T09:03:53.963Z,45.07
2018-09-01T09:04:54.102Z,43.52
2018-09-01T09:05:54.281Z,43.13
2018-09-01T09:06:54.372Z,42.86
2018-09-01T09:07:54.539Z,42.79
2018-09-01T09:08:54.687Z,42.33
2018-09-01T09:09:54.864Z,41.45
2018-09-01T09:10:55.037Z,41.45
2018-09-01T09:11:55.357Z,41.08
2018-09-01T09:12:55.497Z,40.33
2018-09-01T09:13:55.659Z,39.84
2018-09-01T09:14:55.817Z,40.01
2018-09-01T09:15:56.061Z,40.95
2018-09-01T09:16:56.212Z,42.03
2018-09-01T09:17:56.303Z,41.74
2018-09-01T09:18:56.468Z,41.18
2018-09-01T09:19:56.668Z,40.21
2018-09-01T09:20:56.868Z,40.62
2018-09-01T09:21:56.984Z,39.53
2018-09-01T09:22:57.205Z,40.03
2018-09-01T09:23:57.416Z,38.67
2018-09-01T09:24:57.616Z,37.20
2018-09-01T09:25:57.744Z,38.25
2018-09-01T09:26:57.884Z,39.69
2018-09-01T09:27:58.128Z,39.88
2018-09-01T09:28:58.275Z,40.97
2018-09-01T09:29:58.454Z,40.58
2018-09-01T09:30:58.654Z,40.36
2018-09-01T09:31:58.810Z,39.78
2018-09-01T09:32:58.906Z,40.26
2018-09-01T09:33:59.220Z,41.00
2018-09-01T09:34:59.275Z,42.60
2018-09-01T09:35:59.490Z,41.33
2018-09-01T09:36:59.647Z,41.16
2018-09-01T09:37:59.823Z,40.89
2018-09-01T09:39:00.010Z,39.14
2018-09-01T09:40:00.138Z,38.91
2018-09-01T09:41:00.328Z,40.00
2018-09-01T09:42:00.624Z,39.34
2018-09-01T09:43:00.673Z,38.56
2018-09-01T09:44:00.805Z,39.22
2018-09-01T09:45:00.979Z,39.08
2018-09-01T09:46:01.198Z,41.17
2018-09-01T09:47:01.341Z,42.51
2018-09-01T09:48:02.351Z,42.44
2018-09-01T09:49:01.745Z,41.58
2018-09-01T09:50:01.900Z,40.92
2018-09-01T09:51:02.150Z,39.78
2018-09-01T09:52:02.257Z,38.91
2018-09-01T09:53:02.387Z,38.71
2018-09-01T09:54:02.510Z,39.20
2018-09-01T09:55:02.695Z,39.69
2018-09-01T09:56:02.948Z,38.34
2018-09-01T09:57:03.111Z,38.56
2018-09-01T09:58:03.228Z,38.67
2018-09-01T09:59:03.378Z,38.01
2018-09-01T10:00:03.610Z,37.06
2018-09-01T10:01:03.812Z,36.30
2018-09-01T10:02:03.941Z,35.80
2018-09-01T10:03:04.124Z,36.60
2018-09-01T10:04:04.285Z,38.21
2018-09-01T10:05:04.534Z,39.65
2018-09-01T10:06:04.701Z,40.67
2018-09-01T10:07:04.770Z,42.66
2018-09-01T10:08:04.953Z,43.20
2018-09-01T10:09:05.193Z,43.71
2018-09-01T10:10:05.418Z,43.13
2018-09-01T10:11:05.638Z,42.93
2018-09-01T10:12:05.716Z,42.91
2018-09-01T10:13:05.844Z,44.03
2018-09-01T10:14:06.032Z,44.32
2018-09-01T10:15:06.213Z,45.55
2018-09-01T10:16:06.367Z,46.30
2018-09-01T10:17:06.595Z,46.30
2018-09-01T10:18:06.784Z,46.03
2018-09-01T10:19:06.958Z,44.94
2018-09-01T10:20:07.223Z,40.81
2018-09-01T10:21:07.403Z,40.13
2018-09-01T10:22:07.585Z,41.08
2018-09-01T10:23:07.680Z,42.12
2018-09-01T10:24:07.816Z,42.00
2018-09-01T10:25:08.106Z,42.58
2018-09-01T10:26:08.250Z,42.27
2018-09-01T10:27:08.488Z,42.12
2018-09-01T10:28:08.605Z,40.83
2018-09-01T10:29:08.854Z,38.56
2018-09-01T10:30:09.030Z,36.93
2018-09-01T10:31:09.239Z,35.41
2018-09-01T10:32:09.343Z,35.14
2018-09-01T10:33:09.561Z,35.14
2018-09-01T10:34:09.710Z,34.11
2018-09-01T10:35:09.844Z,32.87
2018-09-01T10:36:09.994Z,31.63
2018-09-01T10:37:10.181Z,31.73
2018-09-01T10:38:10.361Z,31.16
2018-09-01T10:39:10.562Z,30.46
2018-09-01T10:40:10.738Z,31.60
2018-09-01T10:41:10.925Z,32.55
2018-09-01T10:42:11.129Z,32.71
2018-09-01T10:43:11.244Z,34.31
2018-09-01T10:44:11.405Z,34.49
2018-09-01T10:45:11.670Z,36.10
2018-09-01T10:46:11.802Z,36.96
2018-09-01T10:47:11.962Z,37.90
2018-09-01T10:48:12.191Z,38.58
2018-09-01T10:49:12.231Z,39.43
2018-09-01T10:50:12.493Z,39.41
2018-09-01T10:51:12.634Z,38.93
2018-09-01T10:52:12.810Z,39.99
2018-09-01T10:53:12.964Z,38.79
2018-09-01T10:54:13.078Z,37.01
2018-09-01T10:55:13.361Z,34.53
2018-09-01T10:56:13.438Z,32.24
2018-09-01T10:57:13.640Z,32.28
2018-09-01T10:58:13.808Z,32.02
2018-09-01T10:59:14.059Z,30.65
2018-09-01T11:00:14.172Z,30.47
2018-09-01T11:01:14.403Z,30.49
2018-09-01T11:02:14.524Z,29.63
2018-09-01T11:03:14.669Z,28.38
2018-09-01T11:04:14.835Z,28.00
2018-09-01T11:05:15.097Z,27.13
2018-09-01T11:06:15.162Z,26.06
2018-09-01T11:07:15.318Z,25.46
2018-09-01T11:08:15.556Z,26.52
2018-09-01T11:09:15.744Z,26.81
2018-09-01T11:10:15.943Z,26.84
2018-09-01T11:11:16.157Z,25.47
2018-09-01T11:12:16.237Z,25.20
2018-09-01T11:13:16.419Z,24.71
2018-09-01T11:14:16.731Z,24.42
2018-09-01T11:15:16.805Z,24.30
2018-09-01T11:16:17.031Z,25.08
2018-09-01T11:17:17.182Z,25.57
2018-09-01T11:18:17.385Z,24.89
2018-09-01T11:19:17.451Z,25.96
2018-09-01T11:20:17.692Z,25.10
2018-09-01T11:21:17.782Z,25.49
2018-09-01T11:22:18.024Z,24.53
2018-09-01T11:23:18.238Z,24.04
2018-09-01T11:24:18.402Z,24.04
2018-09-01T11:25:18.577Z,24.04
2018-09-01T11:26:18.761Z,23.37
2018-09-01T11:27:18.897Z,24.44
2018-09-01T11:28:19.024Z,23.58
2018-09-01T11:29:19.268Z,23.65
2018-09-01T11:30:19.516Z,24.53
2018-09-01T11:31:19.614Z,24.04
2018-09-01T11:32:19.859Z,23.74
2018-09-01T11:33:19.949Z,23.74
2018-09-01T11:34:20.201Z,24.42
2018-09-01T11:35:20.382Z,23.54
2018-09-01T11:36:20.464Z,23.64
2018-09-01T11:37:20.765Z,23.35
2018-09-01T11:38:20.925Z,24.64
2018-09-01T11:39:21.060Z,24.25
2018-09-01T11:40:21.246Z,24.37
2018-09-01T11:41:21.406Z,22.81
2018-09-01T11:42:21.703Z,22.97
2018-09-01T11:43:21.874Z,23.76
2018-09-01T11:44:21.958Z,23.59
2018-09-01T11:45:22.177Z,22.41
2018-09-01T11:46:22.363Z,21.53
2018-09-01T11:47:22.497Z,22.31
2018-09-01T11:48:22.705Z,22.81
2018-09-01T11:49:22.823Z,23.38
2018-09-01T11:50:23.051Z,22.59
2018-09-01T11:51:23.256Z,22.76
2018-09-01T11:52:23.507Z,23.54
2018-09-01T11:53:23.708Z,24.53
2018-09-01T11:54:23.713Z,23.75
2018-09-01T11:55:23.924Z,22.20
2018-09-01T11:56:24.156Z,22.30
2018-09-01T11:57:24.289Z,22.80
2018-09-01T11:58:24.508Z,22.50
2018-09-01T11:59:24.674Z,22.39
2018-09-01T12:00:24.832Z,23.27
2018-09-01T12:01:25.000Z,23.08
2018-09-01T12:02:25.264Z,22.58
2018-09-01T12:03:25.406Z,22.67
2018-09-01T12:04:25.590Z,22.41
2018-09-01T12:05:25.719Z,22.42
2018-09-01T12:06:25.919Z,22.31
2018-09-01T12:07:26.185Z,22.41
2018-09-01T12:08:26.322Z,21.55
2018-09-01T12:09:26.578Z,22.58
2018-09-01T12:10:26.713Z,23.52
2018-09-01T12:11:26.850Z,24.29
2018-09-01T12:12:27.131Z,24.30
2018-09-01T12:13:27.250Z,23.33
2018-09-01T12:14:27.422Z,23.83
2018-09-01T12:15:27.581Z,23.93
2018-09-01T12:16:27.826Z,23.37
2018-09-01T12:17:28.452Z,22.31
2018-09-01T12:18:28.191Z,21.53
2018-09-01T12:19:28.332Z,21.33
2018-09-01T12:20:28.464Z,21.81
2018-09-01T12:21:28.700Z,22.22
2018-09-01T12:22:28.852Z,22.11
2018-09-01T12:23:29.082Z,22.42
2018-09-01T12:24:29.265Z,20.09
2018-09-01T12:25:29.437Z,20.01
2018-09-01T12:26:29.636Z,19.72
2018-09-01T12:27:29.744Z,19.60
2018-09-01T12:28:29.978Z,20.28
2018-09-01T12:29:30.111Z,19.71
2018-09-01T12:30:30.306Z,20.09
2018-09-01T12:31:30.558Z,20.00
2018-09-01T12:32:30.835Z,20.09
2018-09-01T12:33:30.854Z,20.40
2018-09-01T12:34:31.038Z,19.62
2018-09-01T12:35:31.385Z,19.22
2018-09-01T12:36:31.544Z,19.12
2018-09-01T12:37:31.688Z,18.83
2018-09-01T12:38:31.842Z,17.74
2018-09-01T12:39:32.020Z,18.82
2018-09-01T12:40:32.184Z,19.21
2018-09-01T12:41:32.420Z,19.41
2018-09-01T12:42:32.540Z,18.82
2018-09-01T12:43:32.743Z,19.41
2018-09-01T12:44:32.911Z,19.49
2018-09-01T12:45:33.110Z,20.09
2018-09-01T12:46:33.243Z,19.80
2018-09-01T12:47:33.489Z,19.51
2018-09-01T12:48:33.587Z,18.54
2018-09-01T12:49:33.822Z,18.72
2018-09-01T12:50:33.966Z,18.74
2018-09-01T12:51:34.198Z,18.44
2018-09-01T12:52:34.328Z,18.32
2018-09-01T12:53:34.623Z,18.60
2018-09-01T12:54:34.808Z,18.82
2018-09-01T12:55:34.906Z,18.73
2018-09-01T12:56:35.082Z,18.84
2018-09-01T12:57:35.231Z,18.05
2018-09-01T12:58:35.440Z,18.93
2018-09-01T12:59:35.576Z,18.25
2018-09-01T13:00:35.783Z,17.86
2018-09-01T13:01:35.945Z,18.25
2018-09-01T13:02:36.129Z,18.26
2018-09-01T13:03:36.261Z,17.65
2018-09-01T13:04:36.466Z,18.52
2018-09-01T13:05:36.725Z,18.72
2018-09-01T13:06:36.902Z,18.73
2018-09-01T13:07:37.065Z,17.94
2018-09-01T13:08:37.206Z,18.23
2018-09-01T13:09:37.466Z,18.73
2018-09-01T13:10:37.587Z,17.86
2018-09-01T13:11:37.821Z,17.16
2018-09-01T13:12:38.136Z,17.75
2018-09-01T13:13:38.251Z,17.74
2018-09-01T13:14:38.366Z,18.04
2018-09-01T13:15:38.567Z,17.65
2018-09-01T13:16:38.725Z,17.55
2018-09-01T13:17:38.860Z,17.75
2018-09-01T13:18:39.069Z,17.85
2018-09-01T13:19:39.312Z,17.73
2018-09-01T13:20:39.397Z,18.32
2018-09-01T13:21:39.685Z,18.12
2018-09-01T13:22:39.823Z,17.83
2018-09-01T13:23:39.986Z,17.94
2018-09-01T13:24:40.217Z,17.65
2018-09-01T13:25:40.325Z,17.73
2018-09-01T13:26:40.605Z,17.85
2018-09-01T13:27:40.751Z,17.36
2018-09-01T13:28:40.931Z,17.85
2018-09-01T13:29:41.060Z,17.94
2018-09-01T13:30:41.319Z,18.25
2018-09-01T13:31:41.512Z,18.15
2018-09-01T13:32:41.599Z,17.77
2018-09-01T13:33:41.820Z,17.79
2018-09-01T13:34:41.981Z,16.89
2018-09-01T13:35:42.183Z,17.28
2018-09-01T13:36:42.417Z,17.55
2018-09-01T13:37:42.562Z,18.73
2018-09-01T13:38:42.711Z,18.05
2018-09-01T13:39:42.933Z,17.76
2018-09-01T13:40:43.055Z,16.80
2018-09-01T13:41:43.329Z,16.33
2018-09-01T13:42:43.434Z,16.24
2018-09-01T13:43:43.610Z,15.63
2018-09-01T13:44:43.910Z,16.02
2018-09-01T13:45:44.013Z,16.50
2018-09-01T13:46:44.208Z,16.87
2018-09-01T13:47:44.308Z,17.74
2018-09-01T13:48:44.520Z,17.75
2018-09-01T13:49:44.689Z,18.04
2018-09-01T13:50:44.922Z,18.33
2018-09-01T13:51:45.035Z,18.52
2018-09-01T13:52:45.237Z,18.54
2018-09-01T13:53:45.380Z,17.86
2018-09-01T13:54:45.577Z,17.86
2018-09-01T13:55:45.730Z,17.77
2018-09-01T13:56:45.907Z,17.85
2018-09-01T13:57:46.125Z,17.94
2018-09-01T13:58:46.221Z,18.44
2018-09-01T13:59:46.482Z,18.73
2018-09-01T14:00:46.634Z,17.94
2018-09-01T14:01:46.775Z,18.35
2018-09-01T14:02:47.073Z,17.28
2018-09-01T14:03:47.236Z,17.46
2018-09-01T14:04:47.459Z,17.66
2018-09-01T14:05:47.615Z,17.96
2018-09-01T14:06:47.737Z,18.06
2018-09-01T14:07:47.951Z,17.77
2018-09-01T14:08:48.067Z,17.65
2018-09-01T14:09:48.276Z,18.44
2018-09-01T14:10:48.558Z,18.05
2018-09-01T14:11:48.689Z,18.15
2018-09-01T14:12:48.948Z,17.65
2018-09-01T14:13:49.060Z,17.94
2018-09-01T14:14:49.418Z,18.44
2018-09-01T14:15:49.423Z,19.20
2018-09-01T14:16:49.607Z,19.31
2018-09-01T14:17:49.782Z,19.59
2018-09-01T14:18:49.989Z,19.51
2018-09-01T14:19:50.218Z,19.01
2018-09-01T14:20:50.386Z,19.12
2018-09-01T14:21:50.564Z,18.93
2018-09-01T14:22:50.740Z,18.83
2018-09-01T14:23:50.893Z,18.74
2018-09-01T14:24:51.115Z,18.44
2018-09-01T14:25:51.241Z,18.54
2018-09-01T14:26:51.436Z,18.44
2018-09-01T14:27:51.569Z,18.23
2018-09-01T14:28:51.855Z,18.82
2018-09-01T14:29:52.065Z,18.24
2018-09-01T14:30:52.183Z,18.52
2018-09-01T14:31:52.353Z,18.52
2018-09-01T14:32:52.565Z,19.00
2018-09-01T14:33:52.724Z,19.10
2018-09-01T14:34:52.891Z,19.39
2018-09-01T14:35:53.090Z,19.39
2018-09-01T14:36:53.249Z,18.90
2018-09-01T14:37:53.478Z,20.07
2018-09-01T14:38:53.655Z,19.96
2018-09-01T14:39:53.895Z,19.86
2018-09-01T14:40:54.036Z,20.06
2018-09-01T14:41:54.295Z,20.43
2018-09-01T14:42:54.438Z,20.36
2018-09-01T14:43:54.691Z,20.17
2018-09-01T14:44:54.804Z,19.57
2018-09-01T14:45:55.035Z,19.78
2018-09-01T14:46:55.165Z,19.98
2018-09-01T14:47:55.418Z,20.66
2018-09-01T14:48:55.569Z,20.07
2018-09-01T14:49:55.775Z,20.09
2018-09-01T14:50:55.929Z,19.87
2018-09-01T14:51:56.149Z,20.56
2018-09-01T14:52:56.327Z,20.65
2018-09-01T14:53:56.539Z,20.36
2018-09-01T14:54:56.715Z,19.98
2018-09-01T14:55:56.817Z,20.67
2018-09-01T14:56:57.075Z,19.80
2018-09-01T14:57:57.322Z,19.98
2018-09-01T14:58:57.479Z,20.26
2018-09-01T14:59:57.655Z,20.65
2018-09-01T15:00:57.803Z,20.54
2018-09-01T15:01:58.870Z,21.03
2018-09-01T15:02:58.099Z,21.53
2018-09-01T15:03:58.296Z,21.04
2018-09-01T15:04:58.560Z,21.44
2018-09-01T15:05:58.713Z,21.34
2018-09-01T15:06:58.951Z,21.13
2018-09-01T15:07:59.037Z,21.04
2018-09-01T15:08:59.254Z,20.56
2018-09-01T15:09:59.399Z,19.79
2018-09-01T15:10:59.593Z,19.99
2018-09-01T15:11:59.819Z,20.76
2018-09-01T15:13:00.034Z,20.27
2018-09-01T15:14:00.215Z,20.47
2018-09-01T15:15:00.342Z,20.56
2018-09-01T15:16:00.451Z,20.96
2018-09-01T15:17:00.679Z,21.06
2018-09-01T15:18:00.824Z,20.96
2018-09-01T15:19:01.070Z,20.76
2018-09-01T15:20:01.472Z,21.35
2018-09-01T15:21:01.421Z,21.26
2018-09-01T15:22:01.677Z,21.24
2018-09-01T15:23:01.845Z,21.42
2018-09-01T15:24:02.243Z,21.71
2018-09-01T15:25:02.122Z,22.75
2018-09-01T15:26:02.306Z,24.08
2018-09-01T15:27:02.485Z,24.94
2018-09-01T15:28:02.665Z,25.79
2018-09-01T15:29:02.830Z,26.94
2018-09-01T15:30:02.983Z,27.31
2018-09-01T15:31:03.157Z,28.07
2018-09-01T15:32:03.365Z,28.74
2018-09-01T15:33:03.624Z,28.74
2018-09-01T15:34:03.710Z,28.75
2018-09-01T15:35:03.865Z,28.00
2018-09-01T15:36:04.085Z,27.33
2018-09-01T15:37:04.281Z,26.28
2018-09-01T15:38:04.490Z,26.10
2018-09-01T15:39:04.691Z,25.43
2018-09-01T15:40:04.795Z,24.96
2018-09-01T15:41:05.024Z,24.38
2018-09-01T15:42:05.229Z,24.78
2018-09-01T15:43:05.387Z,24.19
2018-09-01T15:44:05.596Z,24.28
2018-09-01T15:45:05.745Z,24.21
2018-09-01T15:46:05.961Z,23.72
2018-09-01T15:47:06.015Z,23.23
2018-09-01T15:48:06.324Z,23.91
2018-09-01T15:49:06.410Z,23.33
2018-09-01T15:50:06.610Z,23.54
2018-09-01T15:51:06.811Z,23.63
2018-09-01T15:52:06.952Z,24.11
2018-09-01T15:53:07.128Z,24.19
2018-09-01T15:54:07.393Z,24.07
2018-09-01T15:55:07.502Z,25.51
2018-09-01T15:56:07.671Z,26.17
2018-09-01T15:57:07.905Z,27.21
2018-09-01T15:58:08.034Z,28.54
2018-09-01T15:59:08.210Z,29.98
2018-09-01T16:00:08.406Z,30.74
2018-09-01T16:01:08.569Z,31.31
2018-09-01T16:02:09.390Z,31.39
2018-09-01T16:03:08.964Z,32.54
2018-09-01T16:04:09.081Z,32.24
2018-09-01T16:05:09.321Z,32.34
2018-09-01T16:06:09.506Z,32.24
2018-09-01T16:07:09.662Z,32.26
2018-09-01T16:08:09.852Z,32.36
2018-09-01T16:09:10.028Z,32.44
2018-09-01T16:10:10.155Z,32.84
2018-09-01T16:11:10.369Z,33.02
2018-09-01T16:12:10.537Z,32.94
2018-09-01T16:13:10.701Z,33.14
2018-09-01T16:14:10.914Z,32.75
2018-09-01T16:15:11.156Z,33.72
2018-09-01T16:16:11.322Z,33.41
2018-09-01T16:17:11.429Z,33.42
2018-09-01T16:18:11.596Z,33.41
2018-09-01T16:19:11.768Z,33.31
2018-09-01T16:20:11.908Z,33.20
2018-09-01T16:21:12.125Z,33.69
2018-09-01T16:22:12.381Z,33.97
2018-09-01T16:23:12.545Z,33.95
2018-09-01T16:24:12.698Z,33.76
2018-09-01T16:25:12.875Z,34.54
2018-09-01T16:26:13.048Z,33.76